Terminal Aerodrome Forecast
Issued by NWS Caribou, ME

Home | Current Version | Previous Version | Text Only | Print | Product List | Glossary On
Versions: 1 2 3 4 5 6 7 8 9 10 11 12 13 14 15 16 17 18 19
000
FTUS41 KCAR 211203 CCA
TAFBGR
TAF COR
KBGR 211203Z 2112/2212 35004KT P6SM -SHSN FEW009 SCT015 OVC025
     FM211700 03004KT P6SM OVC012=

USA.gov is the U.S. government's official web portal to all federal, state and local government web resources and services.